Grand Meadow, Minnesota
Current Conditions -  °F | °C
As of 2:54 PM on Thursday 20 Nov 2014 (Local Time) from KRST Reporting Station
Clear Clear  
Wind Chill: -1°   Ceiling: Unl
Heat Index: 16°   Visibility: 10mi
Dew Point:   Wind: 20mph
Humidity: 62%   Direction: 290°WNW
Pressure: 30.12"   Gusts: NA
Location:  43.71°N, 92.57°W
Report Text: KRST 202054Z 29017KT 10SM CLR M09/M15 A3012 RMK AO2 SLP228 T10891150 53009
Loading
Personal Weather Stations






























Interactive Weather Map New forecast layout! Learn more

10-Day Weather Forecast

Advertisements
Track Severe Weather on mobile